Time;durP1;ratioP1;P1;durP2;ratioP2;P2;SDS_P1;SDS_P2;PMS_P1;PMS_P2;Temp;Humidity;BMP_temperature;BMP_pressure;BME280_temperature;BME280_humidity;BME280_pressure;Samples;Min_cycle;Max_cycle;Signal;HPM_P1;HPM_P2
2022/07/13 00:02:24;;;;;;;9.23;8.23;;;20.20;99.90;;;;;;4996214;28;20129;-84
2022/07/13 00:04:50;;;;;;;9.20;8.25;;;20.40;99.90;;;;;;4996928;28;20077;-88
2022/07/13 00:07:16;;;;;;;10.52;8.43;;;20.30;99.90;;;;;;5013980;28;20049;-89
2022/07/13 00:09:42;;;;;;;12.43;7.78;;;;;;;;;;5033869;28;20083;-89
2022/07/13 00:12:07;;;;;;;9.75;8.15;;;20.20;99.90;;;;;;4999852;28;20049;-87
2022/07/13 00:14:34;;;;;;;9.95;8.30;;;;;;;;;;4983526;28;20050;-88
2022/07/13 00:17:00;;;;;;;8.65;7.78;;;;;;;;;;5006216;28;20045;-85
2022/07/13 00:19:26;;;;;;;13.95;8.43;;;20.50;99.90;;;;;;5012406;28;20056;-89
2022/07/13 00:21:55;;;;;;;8.60;7.70;;;;;;;;;;5031963;28;20057;-85
2022/07/13 00:24:21;;;;;;;9.18;8.27;;;;;;;;;;5000753;28;20088;-92
2022/07/13 00:26:47;;;;;;;10.05;8.48;;;;;;;;;;5019249;28;20116;-88
2022/07/13 00:29:13;;;;;;;8.75;7.85;;;20.40;99.90;;;;;;5036542;28;20045;-89
2022/07/13 00:31:39;;;;;;;8.98;7.50;;;;;;;;;;5018545;28;20045;-93
2022/07/13 00:34:05;;;;;;;9.43;8.07;;;;;;;;;;5001136;28;20049;-88
2022/07/13 00:36:31;;;;;;;14.95;8.35;;;;;;;;;;5000518;28;20068;-90
2022/07/13 00:38:57;;;;;;;10.45;7.78;;;;;;;;;;5000205;28;20045;-89
2022/07/13 00:41:23;;;;;;;10.45;7.78;;;;;;;;;;5032934;28;20045;-91
2022/07/13 00:43:49;;;;;;;12.45;7.30;;;;;;;;;;5012856;28;20038;-91
2022/07/13 00:46:16;;;;;;;10.40;8.25;;;;;;;;;;5000290;28;20521;-91
2022/07/13 00:48:42;;;;;;;7.18;6.57;;;20.30;99.90;;;;;;5023187;28;20044;-91
2022/07/13 00:51:08;;;;;;;9.85;7.85;;;;;;;;;;5036521;28;20052;-92
2022/07/13 00:53:39;;;;;;;11.60;6.97;;;20.40;99.90;;;;;;5017895;28;20045;-89
2022/07/13 00:56:06;;;;;;;10.82;8.50;;;20.40;99.90;;;;;;5014087;28;20050;-88
2022/07/13 00:58:32;;;;;;;10.32;7.28;;;;;;;;;;4984297;28;20041;-88
2022/07/13 01:00:58;;;;;;;8.15;7.35;;;;;;;;;;5016403;28;20572;-89
2022/07/13 01:03:25;;;;;;;10.93;7.88;;;;;;;;;;4999736;28;20048;-88
2022/07/13 01:05:53;;;;;;;10.95;7.47;;;20.30;99.90;;;;;;5000482;28;20041;-88
2022/07/13 01:08:20;;;;;;;9.25;7.82;;;20.10;99.90;;;;;;5015773;28;20390;-91
2022/07/13 01:10:47;;;;;;;8.68;7.22;;;20.20;99.90;;;;;;5029374;28;20405;-87
2022/07/13 01:13:16;;;;;;;8.50;7.68;;;20.20;99.90;;;;;;5000065;28;20107;-85
2022/07/13 01:15:42;;;;;;;8.57;7.78;;;20.20;99.90;;;;;;4998716;28;20056;-84
2022/07/13 01:18:12;;;;;;;14.18;8.40;;;20.40;99.90;;;;;;5014911;28;20060;-85
2022/07/13 01:20:39;;;;;;;9.27;7.80;;;20.40;99.90;;;;;;5022798;28;20556;-85
2022/07/13 01:23:09;;;;;;;9.88;8.80;;;20.40;99.90;;;;;;5021622;28;20087;-85
2022/07/13 01:25:35;;;;;;;9.35;7.65;;;20.30;99.90;;;;;;4998697;28;20046;-83
2022/07/13 01:28:01;;;;;;;9.77;7.45;;;;;;;;;;4999178;28;20188;-87
2022/07/13 01:30:27;;;;;;;9.65;7.47;;;;;;;;;;4999867;28;20048;-90
2022/07/13 01:32:53;;;;;;;11.90;8.68;;;;;;;;;;5029100;28;20068;-91
2022/07/13 01:35:21;;;;;;;8.40;7.50;;;20.20;99.90;;;;;;4997828;28;20649;-91
2022/07/13 01:37:47;;;;;;;9.77;8.02;;;20.20;99.90;;;;;;5014922;28;20042;-85
2022/07/13 01:40:14;;;;;;;15.20;8.88;;;20.10;99.90;;;;;;5014858;28;20052;-87
2022/07/13 01:42:54;;;;;;;9.90;8.60;;;20.30;99.90;;;;;;5014442;28;20041;-87
2022/07/13 01:45:24;;;;;;;10.93;8.60;;;20.10;99.90;;;;;;4993584;28;20041;-90
2022/07/13 01:47:55;;;;;;;9.85;8.70;;;20.10;99.90;;;;;;4995563;28;20046;-90
2022/07/13 01:50:23;;;;;;;10.63;8.38;;;20.20;99.90;;;;;;4995723;28;20050;-89
2022/07/13 01:52:49;;;;;;;13.73;8.85;;;20.30;99.90;;;;;;5017811;28;20060;-92
2022/07/13 01:55:16;;;;;;;13.80;8.73;;;20.30;99.90;;;;;;5030045;28;20135;-89
2022/07/13 01:57:42;;;;;;;10.15;8.70;;;20.30;99.90;;;;;;5034593;28;20085;-91
2022/07/13 02:00:13;;;;;;;9.35;8.45;;;20.30;99.90;;;;;;5017895;28;20524;-89
2022/07/13 02:02:40;;;;;;;10.63;8.90;;;20.40;99.90;;;;;;5032694;28;20040;-90
2022/07/13 02:05:06;;;;;;;8.45;7.70;;;;;;;;;;5013447;28;20519;-83
2022/07/13 02:07:32;;;;;;;9.70;8.65;;;;;;;;;;4998741;28;20045;-90
2022/07/13 02:09:58;;;;;;;10.38;8.27;;;;;;;;;;5014380;28;20068;-87
2022/07/13 02:12:24;;;;;;;12.65;9.75;;;;;;;;;;4998249;28;20049;-86
2022/07/13 02:14:50;;;;;;;9.88;8.82;;;;;;;;;;4999784;28;20079;-87
2022/07/13 02:17:16;;;;;;;9.93;8.45;;;;;;;;;;5015317;28;20045;-90
2022/07/13 02:19:42;;;;;;;13.50;9.30;;;;;;;;;;5016299;28;20045;-87
2022/07/13 02:22:09;;;;;;;11.30;8.85;;;;;;;;;;5015834;28;20163;-87
2022/07/13 02:24:35;;;;;;;13.63;8.82;;;;;;;;;;5005335;28;20053;-85
2022/07/13 02:27:01;;;;;;;11.75;9.52;;;;;;;;;;5035413;28;20110;-88
2022/07/13 02:29:27;;;;;;;11.13;8.98;;;;;;;;;;5018551;28;20045;-88
2022/07/13 02:31:53;;;;;;;10.02;8.63;;;;;;;;;;5017870;28;20041;-85
2022/07/13 02:34:19;;;;;;;10.27;9.07;;;;;;;;;;5022643;28;20033;-83
2022/07/13 02:36:45;;;;;;;10.27;9.27;;;;;;;;;;5017258;28;20051;-86
2022/07/13 02:39:11;;;;;;;12.48;9.27;;;;;;;;;;5033620;28;20133;-85
2022/07/13 02:41:37;;;;;;;11.70;8.65;;;;;;;;;;5033659;28;20076;-87
2022/07/13 02:44:03;;;;;;;13.00;8.30;;;20.00;99.90;;;;;;5018845;28;20045;-86
2022/07/13 02:46:29;;;;;;;13.38;9.38;;;19.90;99.90;;;;;;5026557;28;20099;-82
2022/07/13 02:48:55;;;;;;;9.95;8.95;;;;;;;;;;5033902;28;20041;-87
2022/07/13 02:51:21;;;;;;;10.35;9.32;;;;;;;;;;5033958;28;20118;-86
2022/07/13 02:53:47;;;;;;;12.63;9.73;;;;;;;;;;5024280;28;20053;-87
2022/07/13 02:56:13;;;;;;;11.02;9.10;;;;;;;;;;5003059;28;20041;-89
2022/07/13 02:58:39;;;;;;;10.45;9.35;;;;;;;;;;5017198;28;20132;-86
2022/07/13 03:01:05;;;;;;;9.73;8.45;;;;;;;;;;5033606;28;20140;-85
2022/07/13 03:03:31;;;;;;;9.90;8.60;;;;;;;;;;5002143;28;20490;-88
2022/07/13 03:05:58;;;;;;;14.35;8.93;;;;;;;;;;4997473;28;20052;-82
2022/07/13 03:08:24;;;;;;;13.00;8.48;;;;;;;;;;5022711;28;20102;-87
2022/07/13 03:10:50;;;;;;;10.73;9.63;;;;;;;;;;4997513;28;20038;-84
2022/07/13 03:13:16;;;;;;;11.40;9.75;;;;;;;;;;5001371;28;20041;-85
2022/07/13 03:15:42;;;;;;;10.65;8.65;;;;;;;;;;5014534;28;20037;-88
2022/07/13 03:18:08;;;;;;;12.48;8.60;;;20.30;99.90;;;;;;5028153;28;20048;-88
2022/07/13 03:20:34;;;;;;;10.30;9.25;;;20.20;99.90;;;;;;5019334;28;20045;-91
2022/07/13 03:23:00;;;;;;;13.10;8.98;;;;;;;;;;5037546;28;20085;-89
2022/07/13 03:25:26;;;;;;;11.10;8.55;;;20.30;99.90;;;;;;5009941;28;20107;-91
2022/07/13 03:27:52;;;;;;;10.90;8.75;;;;;;;;;;5020992;28;20048;-89
2022/07/13 03:30:18;;;;;;;11.15;8.90;;;20.10;99.90;;;;;;5037307;28;20521;-90
2022/07/13 03:32:44;;;;;;;10.32;8.88;;;;;;;;;;5036891;28;20083;-89
2022/07/13 03:35:10;;;;;;;9.75;8.75;;;;;;;;;;5018900;28;20052;-89
2022/07/13 03:37:36;;;;;;;11.30;9.40;;;;;;;;;;5017151;28;20061;-89
2022/07/13 03:40:04;;;;;;;11.52;8.73;;;20.30;99.90;;;;;;5016832;28;20045;-91
2022/07/13 03:42:30;;;;;;;11.57;8.45;;;;;;;;;;5037395;28;20045;-90
2022/07/13 03:44:56;;;;;;;11.35;8.15;;;;;;;;;;5037124;28;20132;-84
2022/07/13 03:47:22;;;;;;;13.40;8.93;;;;;;;;;;5021316;28;20045;-91
2022/07/13 03:49:48;;;;;;;9.90;8.70;;;;;;;;;;5026422;28;20501;-87
2022/07/13 03:52:14;;;;;;;12.25;9.73;;;;;;;;;;5021094;28;20518;-89
2022/07/13 03:54:40;;;;;;;14.40;9.90;;;;;;;;;;5055180;28;20037;-87
2022/07/13 03:57:06;;;;;;;18.40;9.30;;;;;;;;;;5047738;28;20507;-88
2022/07/13 03:59:32;;;;;;;10.77;8.50;;;;;;;;;;5036410;28;20049;-92
2022/07/13 04:01:58;;;;;;;11.70;8.73;;;;;;;;;;5036149;28;20053;-87
2022/07/13 04:04:26;;;;;;;9.40;8.13;;;;;;;;;;5054001;28;20047;-86
2022/07/13 04:06:52;;;;;;;14.95;9.20;;;;;;;;;;5054305;28;20049;-85
2022/07/13 04:09:18;;;;;;;11.02;8.98;;;;;;;;;;5034078;28;20049;-86
2022/07/13 04:11:44;;;;;;;12.63;9.80;;;;;;;;;;5044395;28;20049;-84
2022/07/13 04:14:10;;;;;;;18.83;9.10;;;;;;;;;;5033959;28;20092;-85
2022/07/13 04:16:36;;;;;;;13.38;9.00;;;;;;;;;;5033424;28;20061;-87
2022/07/13 04:19:02;;;;;;;13.90;8.95;;;;;;;;;;4999652;28;20084;-85
2022/07/13 04:21:29;;;;;;;13.40;9.00;;;;;;;;;;5023245;28;20132;-86
2022/07/13 04:23:55;;;;;;;12.45;8.50;;;;;;;;;;5010975;28;20052;-85
2022/07/13 04:26:21;;;;;;;13.85;9.60;;;;;;;;;;5015922;28;20084;-87
2022/07/13 04:28:47;;;;;;;11.20;8.82;;;;;;;;;;5016462;28;20045;-88
2022/07/13 04:31:13;;;;;;;11.73;9.40;;;;;;;;;;4999598;28;20079;-89
2022/07/13 04:33:39;;;;;;;9.32;8.43;;;;;;;;;;5000363;28;20096;-89
2022/07/13 04:36:08;;;;;;;11.02;9.93;;;19.00;99.90;;;;;;4999776;28;20382;-88
2022/07/13 04:38:35;;;;;;;11.85;9.15;;;;;;;;;;4998620;28;20072;-86
2022/07/13 04:41:01;;;;;;;12.80;8.93;;;;;;;;;;4998994;28;20076;-84
2022/07/13 04:43:27;;;;;;;13.45;8.65;;;;;;;;;;5000979;28;20041;-88
2022/07/13 04:45:53;;;;;;;13.90;9.43;;;;;;;;;;4999412;28;20087;-86
2022/07/13 04:48:19;;;;;;;13.63;8.77;;;;;;;;;;5016021;28;20045;-86
2022/07/13 04:50:45;;;;;;;10.00;8.95;;;;;;;;;;5000678;28;20238;-85
2022/07/13 04:53:11;;;;;;;10.45;8.35;;;20.20;99.90;;;;;;5005497;28;20041;-92
2022/07/13 04:55:39;;;;;;;11.10;9.90;;;19.90;99.90;;;;;;5038156;28;20037;-89
2022/07/13 04:58:07;;;;;;;9.32;8.25;;;20.20;99.90;;;;;;5026616;28;20081;-88
2022/07/13 05:00:34;;;;;;;12.77;10.80;;;20.00;99.90;;;;;;5002073;28;20408;-92
2022/07/13 05:03:00;;;;;;;14.35;9.10;;;;;;;;;;5001324;28;20107;-91
2022/07/13 05:05:31;;;;;;;14.10;9.15;;;;;;;;;;5034101;28;20129;-89
2022/07/13 05:07:57;;;;;;;13.82;10.18;;;;;;;;;;5030037;28;20402;-92
2022/07/13 05:10:24;;;;;;;13.35;9.43;;;;;;;;;;5016705;28;20557;-91
2022/07/13 05:12:50;;;;;;;12.70;9.57;;;;;;;;;;5016575;28;20056;-92
2022/07/13 05:15:18;;;;;;;12.40;9.40;;;20.20;99.90;;;;;;5018110;28;20474;-87
2022/07/13 05:17:44;;;;;;;11.00;9.15;;;20.30;99.90;;;;;;5017466;28;20049;-85
2022/07/13 05:20:10;;;;;;;9.88;8.80;;;20.10;99.90;;;;;;5006342;28;20477;-84
2022/07/13 05:22:36;;;;;;;10.80;8.32;;;19.90;99.90;;;;;;5019029;28;20429;-91
2022/07/13 05:25:02;;;;;;;12.30;9.30;;;19.90;99.90;;;;;;4985377;28;20046;-88
2022/07/13 05:27:28;;;;;;;12.90;8.77;;;20.30;99.90;;;;;;4984110;28;20061;-90
2022/07/13 05:29:54;;;;;;;14.55;10.02;;;;;;;;;;5014849;28;20041;-90
2022/07/13 05:32:20;;;;;;;16.80;10.88;;;20.00;99.90;;;;;;5022386;28;20040;-92
2022/07/13 05:34:46;;;;;;;11.02;9.13;;;;;;;;;;5036603;28;20579;-88
2022/07/13 05:37:12;;;;;;;14.00;9.93;;;;;;;;;;5026960;28;20456;-92
2022/07/13 05:39:38;;;;;;;10.75;9.38;;;;;;;;;;4998830;28;20141;-91
2022/07/13 05:42:04;;;;;;;11.43;8.85;;;;;;;;;;5016795;28;20099;-91
2022/07/13 05:44:31;;;;;;;11.15;9.07;;;;;;;;;;5033112;28;20117;-92
2022/07/13 05:46:58;;;;;;;12.30;9.88;;;;;;;;;;4999495;28;20556;-91
2022/07/13 05:49:26;;;;;;;11.82;9.90;;;;;;;;;;4999646;28;20049;-91
2022/07/13 05:51:53;;;;;;;11.48;9.27;;;20.40;99.90;;;;;;4998158;28;20387;-90
2022/07/13 05:54:18;;;;;;;9.38;8.32;;;20.50;99.90;;;;;;4986596;28;20088;-88
2022/07/13 05:56:45;;;;;;;12.63;8.82;;;;;;;;;;4979748;28;20467;-90
2022/07/13 05:59:11;;;;;;;11.18;8.43;;;;;;;;;;4992903;28;20503;-92
2022/07/13 06:01:37;;;;;;;10.52;8.25;;;;;;;;;;5019506;28;20045;-91
2022/07/13 06:04:03;;;;;;;9.77;8.75;;;;;;;;;;5020417;28;20044;-93
2022/07/13 06:06:29;;;;;;;11.30;9.15;;;;;;;;;;5019429;28;20041;-92
2022/07/13 06:08:56;;;;;;;11.20;8.60;;;20.50;99.90;;;;;;4993618;28;20340;-88
2022/07/13 06:11:21;;;;;;;11.35;8.35;;;20.40;99.90;;;;;;4998935;28;20045;-95
2022/07/13 06:13:47;;;;;;;10.48;8.00;;;20.50;99.90;;;;;;5003015;28;20049;-91
2022/07/13 06:16:13;;;;;;;15.10;7.78;;;;;;;;;;4999987;28;20038;-96
2022/07/13 06:18:39;;;;;;;12.68;8.20;;;;;;;;;;5019728;28;20052;-87
2022/07/13 06:21:06;;;;;;;8.48;7.40;;;20.70;99.90;;;;;;5015362;28;20071;-88
2022/07/13 06:23:32;;;;;;;8.75;6.90;;;;;;;;;;5014252;28;20048;-93
2022/07/13 06:25:58;;;;;;;10.70;7.75;;;20.60;99.90;;;;;;4999662;28;20056;-96
2022/07/13 06:28:30;;;;;;;10.15;7.30;;;20.70;99.90;;;;;;5029509;28;20058;-95
2022/07/13 06:30:56;;;;;;;8.52;7.18;;;;;;;;;;5008598;28;20486;-94
2022/07/13 06:33:22;;;;;;;11.13;6.80;;;20.50;99.90;;;;;;4996736;28;20046;-94
2022/07/13 06:35:48;;;;;;;12.30;7.85;;;20.60;99.90;;;;;;5012669;28;20157;-91
2022/07/13 06:38:17;;;;;;;14.95;8.93;;;;;;;;;;5012673;28;20052;-92
2022/07/13 06:40:43;;;;;;;13.43;8.43;;;;;;;;;;4996584;28;20057;-92
2022/07/13 06:43:09;;;;;;;12.77;9.07;;;;;;;;;;4980646;28;20050;-93
2022/07/13 06:45:35;;;;;;;22.08;11.15;;;;;;;;;;5011264;28;20045;-84
2022/07/13 06:48:01;;;;;;;14.98;9.63;;;;;;;;;;5003250;28;20052;-91
2022/07/13 06:50:27;;;;;;;13.77;9.88;;;20.70;99.90;;;;;;5002851;28;20080;-87
2022/07/13 06:52:53;;;;;;;12.27;9.82;;;;;;;;;;5018848;28;20069;-92
2022/07/13 06:55:19;;;;;;;11.90;10.63;;;;;;;;;;5002158;28;20037;-87
2022/07/13 06:57:45;;;;;;;16.77;10.43;;;;;;;;;;5019166;28;20123;-88
2022/07/13 07:00:12;;;;;;;13.10;9.73;;;21.10;99.90;;;;;;5017626;28;20432;-92
2022/07/13 07:02:39;;;;;;;14.30;10.18;;;;;;;;;;5019356;28;20060;-90
2022/07/13 07:05:11;;;;;;;14.90;10.35;;;20.90;99.90;;;;;;5009461;28;20041;-95
2022/07/13 07:07:42;;;;;;;12.07;10.65;;;21.20;99.90;;;;;;5021345;28;20041;-88
2022/07/13 07:10:09;;;;;;;18.35;12.35;;;21.30;99.90;;;;;;4999346;28;20053;-84
2022/07/13 07:12:36;;;;;;;15.55;13.45;;;;;;;;;;5000269;28;20053;-84
2022/07/13 07:15:03;;;;;;;13.18;11.32;;;21.30;99.90;;;;;;5035469;28;20045;-92
2022/07/13 07:17:28;;;;;;;16.83;12.43;;;21.50;99.90;;;;;;5006902;28;20096;-93
2022/07/13 07:20:04;;;;;;;16.85;13.63;;;21.40;99.90;;;;;;5012364;28;20049;-87
2022/07/13 07:22:29;;;;;;;18.98;13.60;;;21.40;99.90;;;;;;5034309;28;20175;-86
2022/07/13 07:24:56;;;;;;;15.20;12.68;;;;;;;;;;5000882;28;20482;-90
2022/07/13 07:27:22;;;;;;;15.93;12.32;;;21.70;99.90;;;;;;5018239;28;20045;-96
2022/07/13 07:29:48;;;;;;;17.20;12.25;;;21.50;99.90;;;;;;5018706;28;20038;-89
2022/07/13 07:32:14;;;;;;;17.40;12.55;;;;;;;;;;5016802;28;20041;-92
2022/07/13 07:34:40;;;;;;;13.80;12.18;;;;;;;;;;5001530;28;20107;-94
2022/07/13 07:37:06;;;;;;;18.95;14.48;;;21.80;99.90;;;;;;5018105;28;20486;-87
2022/07/13 07:39:32;;;;;;;20.05;14.38;;;21.80;99.90;;;;;;5017516;28;20042;-86
2022/07/13 07:42:05;;;;;;;20.42;13.25;;;21.80;99.90;;;;;;5034709;28;20053;-86
2022/07/13 07:44:31;;;;;;;17.13;14.13;;;;;;;;;;5001144;28;20494;-91
2022/07/13 07:46:57;;;;;;;16.15;13.35;;;;;;;;;;5018026;28;20504;-95
2022/07/13 07:49:23;;;;;;;21.83;14.55;;;22.20;99.90;;;;;;5037605;28;20445;-89
2022/07/13 07:51:49;;;;;;;15.15;12.20;;;22.20;99.90;;;;;;5015859;28;20041;-89
2022/07/13 07:54:15;;;;;;;16.70;12.93;;;22.30;99.90;;;;;;5015925;28;20037;-84
2022/07/13 07:56:41;;;;;;;15.32;12.77;;;22.20;99.90;;;;;;5000155;28;20046;-86
2022/07/13 07:59:07;;;;;;;17.08;12.88;;;22.10;99.90;;;;;;5021783;28;20076;-89
2022/07/13 08:01:33;;;;;;;17.25;12.00;;;22.30;99.90;;;;;;5011310;28;20115;-91
2022/07/13 08:03:59;;;;;;;17.40;13.40;;;22.30;99.90;;;;;;5018068;28;20467;-90
2022/07/13 08:06:24;;;;;;;13.70;10.63;;;22.20;99.90;;;;;;5002300;28;20521;-94
2022/07/13 08:08:50;;;;;;;13.85;10.70;;;22.40;99.90;;;;;;5017800;28;20048;-94
2022/07/13 08:11:17;;;;;;;14.80;11.75;;;22.50;99.90;;;;;;5035253;28;20486;-89
2022/07/13 08:13:45;;;;;;;17.65;11.00;;;22.50;99.90;;;;;;5018566;28;20132;-93
2022/07/13 08:16:11;;;;;;;17.10;11.88;;;22.60;99.90;;;;;;5002052;28;20042;-94
2022/07/13 08:18:36;;;;;;;17.02;11.13;;;22.80;99.90;;;;;;5002602;28;20061;-95
2022/07/13 08:21:02;;;;;;;12.05;10.32;;;22.50;99.90;;;;;;5014844;28;20040;-92
2022/07/13 08:26:13;;;;;;;14.77;10.02;;;24.20;99.90;;;;;;5019133;28;20053;-89
2022/07/13 08:28:38;;;;;;;10.68;8.50;;;22.80;99.90;;;;;;5018528;28;20088;-87
2022/07/13 08:31:05;;;;;;;9.50;8.27;;;23.10;99.90;;;;;;5022346;28;20064;-95
2022/07/13 08:39:01;;;;;;;8.82;7.93;;;23.00;99.90;;;;;;5016100;28;20513;-85
2022/07/13 08:41:28;;;;;;;9.15;7.72;;;23.20;99.90;;;;;;5019941;28;20456;-85
2022/07/13 08:43:54;;;;;;;10.57;8.82;;;23.20;99.90;;;;;;5011434;28;20034;-89
2022/07/13 08:46:21;;;;;;;10.05;8.55;;;24.30;99.90;;;;;;4999699;28;20042;-89
2022/07/13 08:48:49;;;;;;;11.38;8.02;;;23.50;99.90;;;;;;4999890;28;20459;-89
2022/07/13 08:51:18;;;;;;;11.15;7.80;;;23.60;99.90;;;;;;5016950;28;20056;-88
2022/07/13 08:53:44;;;;;;;9.55;7.13;;;23.00;99.90;;;;;;5017727;28;20053;-87
2022/07/13 08:56:10;;;;;;;15.25;7.85;;;23.80;99.90;;;;;;5014771;28;20558;-85
2022/07/13 08:58:37;;;;;;;11.05;6.75;;;23.60;99.90;;;;;;5005771;28;20088;-89
2022/07/13 09:01:05;;;;;;;11.05;7.82;;;24.20;99.90;;;;;;5022115;28;20510;-88
2022/07/13 09:03:34;;;;;;;10.10;6.35;;;22.50;99.90;;;;;;5025755;28;20072;-87
2022/07/13 09:06:00;;;;;;;8.98;4.90;;;23.90;99.90;;;;;;5048844;28;20538;-84
2022/07/13 09:08:26;;;;;;;6.78;4.68;;;24.00;99.90;;;;;;5022452;28;20418;-81
2022/07/13 09:10:54;;;;;;;15.50;7.47;;;24.00;99.90;;;;;;5001403;28;20045;-88
2022/07/13 09:13:56;;;;;;;6.63;5.75;;;24.60;99.90;;;;;;5025474;28;20132;-85
2022/07/13 09:16:25;;;;;;;10.15;5.50;;;24.10;99.90;;;;;;4955656;28;20105;-87
2022/07/13 09:18:53;;;;;;;8.13;5.88;;;24.40;99.90;;;;;;4943392;29;20066;-93
2022/07/13 09:21:20;;;;;;;5.53;4.32;;;24.30;99.90;;;;;;4950796;29;20047;-91
2022/07/13 09:23:49;;;;;;;9.50;5.57;;;24.40;99.90;;;;;;4963461;28;20051;-89
2022/07/13 09:26:16;;;;;;;8.80;6.93;;;24.80;99.90;;;;;;4965631;28;20086;-90
2022/07/13 09:28:46;;;;;;;8.05;5.50;;;25.40;99.90;;;;;;4978447;28;20051;-90
2022/07/13 09:31:13;;;;;;;8.70;5.70;;;24.60;99.90;;;;;;4979122;28;20396;-90
2022/07/13 09:33:40;;;;;;;4.28;3.88;;;26.20;99.90;;;;;;4946654;29;20055;-89
2022/07/13 09:36:12;;;;;;;4.97;3.50;;;24.50;99.90;;;;;;4962755;28;20070;-88
2022/07/13 09:38:43;;;;;;;6.03;3.88;;;24.90;99.90;;;;;;4967055;28;20058;-88
2022/07/13 09:41:21;;;;;;;8.43;3.92;;;24.50;99.90;;;;;;4961250;28;20039;-83
2022/07/13 09:46:58;;;;;;;4.65;3.95;;;24.90;99.90;;;;;;4947344;29;20139;-86
2022/07/13 09:49:43;;;;;;;9.02;5.38;;;24.70;99.90;;;;;;4948939;28;20038;-87
2022/07/13 09:52:12;;;;;;;7.93;5.10;;;24.80;99.90;;;;;;4987324;28;20104;-88
2022/07/13 09:54:40;;;;;;;11.35;5.03;;;24.80;99.90;;;;;;5001751;28;20058;-83
2022/07/13 09:57:09;;;;;;;26.67;5.25;;;25.00;99.90;;;;;;5041776;28;20052;-85
2022/07/13 09:59:36;;;;;;;5.00;3.92;;;24.70;99.90;;;;;;5033076;28;20390;-86
2022/07/13 10:02:03;;;;;;;6.25;3.60;;;25.40;99.90;;;;;;5039701;28;20129;-85
2022/07/13 10:04:30;;;;;;;3.80;2.85;;;24.90;99.90;;;;;;5021921;28;20473;-86
2022/07/13 10:06:56;;;;;;;2.80;2.35;;;25.00;99.90;;;;;;5023541;28;20627;-85
2022/07/13 10:09:30;;;;;;;4.97;3.63;;;25.10;99.90;;;;;;5038779;28;20041;-86
2022/07/13 10:11:57;;;;;;;7.97;4.13;;;24.90;99.90;;;;;;5000752;28;20105;-86
2022/07/13 10:14:24;;;;;;;7.53;4.43;;;24.80;99.90;;;;;;5001686;28;20156;-86
2022/07/13 10:16:52;;;;;;;8.40;3.90;;;25.10;99.90;;;;;;5019357;28;20529;-83
2022/07/13 10:19:19;;;;;;;4.00;3.05;;;26.60;99.90;;;;;;5023816;28;20049;-84
2022/07/13 10:22:12;;;;;;;2.72;2.50;;;25.00;99.90;;;;;;5018811;28;20049;-84
2022/07/13 10:24:53;;;;;;;3.47;2.50;;;25.20;99.90;;;;;;4998658;28;20406;-84
2022/07/13 10:27:25;;;;;;;2.83;2.00;;;25.00;99.90;;;;;;5032694;28;20064;-84
2022/07/13 10:29:55;;;;;;;5.45;2.35;;;25.00;99.90;;;;;;5008645;28;20033;-84
2022/07/13 10:32:26;;;;;;;1.92;1.83;;;25.30;99.90;;;;;;5015138;28;20045;-84
2022/07/13 10:34:57;;;;;;;3.10;2.42;;;25.10;99.90;;;;;;5032417;28;20045;-84
2022/07/13 10:37:24;;;;;;;4.00;2.25;;;25.20;99.90;;;;;;5032356;28;20068;-84
2022/07/13 10:40:20;;;;;;;3.63;2.45;;;25.40;99.90;;;;;;5029717;28;20049;-84
2022/07/13 10:42:56;;;;;;;3.85;2.60;;;25.40;99.90;;;;;;4976698;28;20424;-84
2022/07/13 10:45:38;;;;;;;4.65;2.75;;;25.00;99.90;;;;;;4970871;28;20051;-84
2022/07/13 10:48:13;;;;;;;7.20;2.53;;;25.00;99.90;;;;;;4954961;28;20062;-85
2022/07/13 10:50:49;;;;;;;2.83;2.47;;;25.30;99.90;;;;;;4967543;28;20061;-84
2022/07/13 10:53:16;;;;;;;4.50;2.80;;;25.00;99.90;;;;;;4957719;28;20066;-84
2022/07/13 10:55:51;;;;;;;4.22;2.75;;;27.60;99.90;;;;;;4974050;28;20050;-84
2022/07/13 10:58:32;;;;;;;3.95;2.13;;;25.40;99.90;;;;;;4957216;28;20054;-85
2022/07/13 11:00:59;;;;;;;2.83;2.10;;;25.10;99.90;;;;;;4981223;28;20554;-84
2022/07/13 11:03:37;;;;;;;2.20;2.00;;;25.60;99.90;;;;;;4985485;28;20054;-85
2022/07/13 11:06:06;;;;;;;2.85;2.20;;;25.30;99.90;;;;;;4973881;28;20054;-84
2022/07/13 11:08:32;;;;;;;2.58;1.90;;;25.50;99.90;;;;;;4974196;28;20092;-85
2022/07/13 11:11:16;;;;;;;2.22;1.88;;;25.20;99.90;;;;;;4990746;28;20053;-85
2022/07/13 11:13:46;;;;;;;3.30;2.60;;;25.30;99.90;;;;;;4989909;28;20141;-83
2022/07/13 11:16:13;;;;;;;2.47;2.28;;;23.10;99.90;;;;;;4990252;28;20085;-85
2022/07/13 11:18:42;;;;;;;2.90;2.22;;;25.30;99.90;;;;;;4999788;28;20061;-84
2022/07/13 11:21:14;;;;;;;2.78;2.42;;;25.30;99.90;;;;;;5027498;28;20057;-85
2022/07/13 11:26:52;;;;;;;7.65;2.58;;;24.90;99.90;;;;;;4983808;28;20068;-84
2022/07/13 11:29:48;;;;;;;5.03;2.17;;;25.40;99.90;;;;;;4977377;28;20104;-86
2022/07/13 11:32:18;;;;;;;6.03;3.33;;;24.80;99.90;;;;;;4972437;28;20081;-84
2022/07/13 11:34:46;;;;;;;7.88;4.25;;;24.80;99.90;;;;;;5008152;28;20533;-85
2022/07/13 11:37:13;;;;;;;6.43;4.57;;;24.80;99.90;;;;;;5012678;28;20065;-84
2022/07/13 11:39:46;;;;;;;5.28;3.72;;;24.70;99.90;;;;;;5012268;28;20065;-86
2022/07/13 11:42:12;;;;;;;5.00;3.90;;;24.60;99.90;;;;;;5008950;28;20433;-84
2022/07/13 11:44:38;;;;;;;7.03;3.75;;;24.80;99.90;;;;;;4993374;28;20289;-84
2022/07/13 11:47:06;;;;;;;7.55;3.20;;;24.60;99.90;;;;;;4991287;28;20112;-84
2022/07/13 11:49:46;;;;;;;6.25;3.40;;;24.60;99.90;;;;;;4974634;28;20052;-86
2022/07/13 11:52:23;;;;;;;4.97;2.92;;;24.60;99.90;;;;;;4989012;28;20418;-86
2022/07/13 11:54:58;;;;;;;4.25;3.40;;;24.70;99.90;;;;;;4992535;28;20050;-85
2022/07/13 11:57:25;;;;;;;7.55;2.80;;;24.40;99.90;;;;;;4993122;28;20051;-85
2022/07/13 11:59:51;;;;;;;7.05;3.45;;;24.50;99.90;;;;;;4994654;28;20529;-85
2022/07/13 12:02:17;;;;;;;5.80;2.95;;;24.60;99.90;;;;;;5013005;28;20058;-85
2022/07/13 12:04:47;;;;;;;5.68;3.22;;;24.40;99.90;;;;;;5013628;28;20041;-85
2022/07/13 12:07:23;;;;;;;6.57;2.97;;;24.60;99.90;;;;;;5011492;28;20512;-84
2022/07/13 12:09:51;;;;;;;6.28;2.90;;;26.10;99.90;;;;;;5027974;28;20484;-86
2022/07/13 12:12:34;;;;;;;5.38;3.60;;;24.40;99.90;;;;;;5015814;28;20180;-85
2022/07/13 12:15:04;;;;;;;8.18;3.22;;;24.20;99.90;;;;;;5010810;28;20042;-84
2022/07/13 12:17:40;;;;;;;3.92;2.55;;;24.40;99.90;;;;;;4994242;28;20493;-82
2022/07/13 12:20:20;;;;;;;4.43;3.22;;;23.90;99.90;;;;;;4992965;28;20109;-85
2022/07/13 12:22:57;;;;;;;6.28;2.65;;;24.00;99.90;;;;;;4996651;28;20046;-84
2022/07/13 12:25:32;;;;;;;4.43;2.60;;;23.90;99.90;;;;;;4997980;28;20077;-84
2022/07/13 12:28:01;;;;;;;7.07;2.83;;;23.80;99.90;;;;;;5008003;28;20046;-85
2022/07/13 12:30:28;;;;;;;8.35;2.70;;;23.70;99.90;;;;;;5002599;28;20120;-84
2022/07/13 12:33:14;;;;;;;2.65;2.45;;;23.60;99.90;;;;;;4998295;28;20415;-84
2022/07/13 12:35:41;;;;;;;7.80;3.03;;;23.50;99.90;;;;;;4995650;28;20072;-84
2022/07/13 12:38:11;;;;;;;5.63;2.55;;;23.70;99.90;;;;;;4979725;28;20038;-85
2022/07/13 12:40:37;;;;;;;4.15;2.88;;;23.70;99.90;;;;;;4976593;28;20549;-84
2022/07/13 12:43:03;;;;;;;10.48;3.25;;;23.60;99.90;;;;;;4996296;28;20046;-83
2022/07/13 12:45:32;;;;;;;5.07;3.17;;;24.70;99.90;;;;;;4977833;28;20505;-85
2022/07/13 12:47:58;;;;;;;6.00;3.28;;;23.70;99.90;;;;;;4994113;28;20050;-84
2022/07/13 12:50:30;;;;;;;7.65;3.45;;;23.60;99.90;;;;;;4972621;28;20046;-86
2022/07/13 12:53:00;;;;;;;6.57;2.60;;;23.70;99.90;;;;;;4979004;28;20049;-84
2022/07/13 12:55:26;;;;;;;6.55;2.90;;;23.40;99.90;;;;;;4995605;28;20045;-84
2022/07/13 12:57:52;;;;;;;4.03;2.80;;;24.10;99.90;;;;;;4974859;28;20050;-84
2022/07/13 13:00:23;;;;;;;6.70;2.78;;;23.90;99.90;;;;;;4991869;28;20049;-83
2022/07/13 13:02:49;;;;;;;4.47;2.72;;;23.70;99.90;;;;;;4989852;28;20054;-83
2022/07/13 13:05:15;;;;;;;6.03;3.20;;;23.90;99.90;;;;;;5001093;28;20401;-83
2022/07/13 13:07:42;;;;;;;9.95;3.28;;;23.80;99.90;;;;;;4997236;28;20050;-89
2022/07/13 13:10:08;;;;;;;8.77;2.90;;;24.00;99.90;;;;;;4979080;28;20089;-83
2022/07/13 13:12:35;;;;;;;8.45;3.00;;;23.90;99.90;;;;;;4997109;28;20136;-82
2022/07/13 13:15:03;;;;;;;3.40;2.72;;;24.10;99.90;;;;;;4997131;28;20084;-89
2022/07/13 13:17:29;;;;;;;7.40;3.35;;;23.80;99.90;;;;;;5013556;28;20037;-91
2022/07/13 13:19:56;;;;;;;8.35;2.58;;;24.00;99.90;;;;;;4992041;28;20531;-92
2022/07/13 13:22:22;;;;;;;5.55;2.50;;;24.10;99.90;;;;;;5028372;28;20046;-89
2022/07/13 13:24:48;;;;;;;4.90;2.60;;;24.10;99.90;;;;;;5016847;28;20042;-90
2022/07/13 13:27:13;;;;;;;5.88;2.10;;;24.00;99.90;;;;;;5014982;28;20049;-93
2022/07/13 13:32:23;;;;;;;4.05;1.90;;;24.10;99.90;;;;;;5015283;28;20458;-88
2022/07/13 13:34:50;;;;;;;6.10;2.42;;;23.80;99.90;;;;;;4981849;28;20090;-82
2022/07/13 13:37:16;;;;;;;7.68;2.30;;;23.80;99.90;;;;;;4990247;28;20502;-84
2022/07/13 13:39:42;;;;;;;7.18;2.17;;;24.20;99.90;;;;;;4978004;28;20045;-85